Time;durP1;ratioP1;P1;durP2;ratioP2;P2;SDS_P1;SDS_P2;PMS_P1;PMS_P2;Temp;Humidity;BMP_temperature;BMP_pressure;BME280_temperature;BME280_humidity;BME280_pressure;Samples;Min_cycle;Max_cycle;Signal;HPM_P1;HPM_P2
2024/04/04 00:02:19;;;;;;;3.50;1.35;;;;;;;12.66;57.93;98630.44;5072173;28;20024;-82
2024/04/04 00:04:44;;;;;;;3.75;1.50;;;;;;;12.56;58.34;98618.53;5073494;28;20037;-79
2024/04/04 00:07:10;;;;;;;4.38;1.73;;;;;;;12.50;56.12;98614.03;5072013;28;20028;-82
2024/04/04 00:09:35;;;;;;;3.60;1.42;;;;;;;12.65;54.17;98640.00;5071614;28;20494;-78
2024/04/04 00:12:00;;;;;;;4.95;1.30;;;;;;;12.64;54.40;98624.59;5073036;28;20036;-79
2024/04/04 00:14:26;;;;;;;5.05;1.80;;;;;;;12.75;55.29;98630.53;5071675;28;20026;-81
2024/04/04 00:16:51;;;;;;;3.33;1.50;;;;;;;12.60;55.53;98596.22;5072237;28;20030;-79
2024/04/04 00:19:17;;;;;;;11.73;2.20;;;;;;;12.67;54.22;98601.50;5072537;28;20485;-80
2024/04/04 00:21:42;;;;;;;11.55;2.45;;;;;;;12.80;53.59;98635.47;5073091;28;20111;-80
2024/04/04 00:24:08;;;;;;;6.35;2.30;;;;;;;12.80;52.49;98621.59;5071326;28;20020;-80
2024/04/04 00:26:34;;;;;;;6.60;2.40;;;;;;;12.97;51.44;98639.56;5071794;28;20036;-82
2024/04/04 00:28:59;;;;;;;9.32;2.40;;;;;;;12.85;50.55;98634.88;5071252;28;20494;-81
2024/04/04 00:31:25;;;;;;;8.02;2.33;;;;;;;12.87;49.56;98618.56;5071639;28;20039;-81
2024/04/04 00:33:50;;;;;;;6.43;2.17;;;;;;;12.75;49.54;98602.78;5072231;28;20052;-81
2024/04/04 00:36:15;;;;;;;8.10;2.10;;;;;;;12.96;49.31;98634.50;5073240;28;20478;-80
2024/04/04 00:38:41;;;;;;;6.10;2.28;;;;;;;12.72;49.34;98587.06;5071306;28;20406;-80
2024/04/04 00:41:06;;;;;;;4.28;1.92;;;;;;;12.86;49.71;98628.13;5071367;28;20032;-80
2024/04/04 00:43:32;;;;;;;7.57;2.05;;;;;;;12.95;49.49;98632.94;5071411;28;20119;-80
2024/04/04 00:45:57;;;;;;;5.05;2.08;;;;;;;12.44;48.90;98552.88;5070592;28;20460;-80
2024/04/04 00:48:24;;;;;;;8.75;2.00;;;;;;;12.93;49.44;98636.16;5070706;28;20046;-79
2024/04/04 00:50:52;;;;;;;5.63;2.00;;;;;;;12.76;49.27;98592.47;5072102;28;20062;-80
2024/04/04 00:53:18;;;;;;;;;;;;;;;13.12;48.75;98648.16;5071413;28;20493;-80
2024/04/04 00:55:46;;;;;;;5.53;2.20;;;;;;;12.97;48.28;98636.03;5070881;28;19908;-80
2024/04/04 00:58:12;;;;;;;4.20;1.58;;;;;;;12.68;48.20;98591.19;5072138;28;20115;-81
2024/04/04 01:00:38;;;;;;;4.95;1.92;;;;;;;12.93;48.50;98633.41;5071007;28;20456;-81
2024/04/04 01:03:04;;;;;;;4.03;1.90;;;;;;;12.93;48.48;98621.53;5072034;28;20478;-80
2024/04/04 01:05:29;;;;;;;4.65;1.80;;;;;;;12.95;48.40;98632.94;5070602;28;20036;-81
2024/04/04 01:07:54;;;;;;;3.90;1.70;;;;;;;12.41;49.10;98537.16;5070202;28;20123;-81
2024/04/04 01:10:20;;;;;;;3.60;2.15;;;;;;;12.90;48.39;98617.66;5071647;28;20492;-82
2024/04/04 01:12:45;;;;;;;4.90;2.17;;;;;;;12.92;48.75;98623.53;5070016;28;20132;-81
2024/04/04 01:15:11;;;;;;;3.70;1.85;;;;;;;12.79;48.75;98616.50;5070136;28;20017;-81
2024/04/04 01:17:36;;;;;;;3.92;1.77;;;;;;;12.73;48.56;98629.41;5070232;28;20035;-81
2024/04/04 01:20:03;;;;;;;5.65;2.10;;;;;;;12.67;48.34;98595.19;5070758;28;20031;-81
2024/04/04 01:22:28;;;;;;;9.32;2.15;;;;;;;12.86;47.99;98630.09;5070339;28;20567;-82
2024/04/04 01:24:54;;;;;;;4.47;1.92;;;;;;;12.82;48.12;98599.75;5063963;28;20029;-80
2024/04/04 01:27:19;;;;;;;5.63;1.75;;;;;;;12.75;49.00;98594.47;5063699;28;20028;-81
2024/04/04 01:29:44;;;;;;;5.00;2.22;;;;;;;12.84;50.74;98622.25;5058561;28;20412;-81
2024/04/04 01:32:10;;;;;;;7.45;1.80;;;;;;;12.42;52.33;98590.56;5070147;28;20557;-81
2024/04/04 01:34:35;;;;;;;9.63;1.90;;;;;;;12.37;53.27;98602.22;5070410;28;20028;-81
2024/04/04 01:37:01;;;;;;;4.75;1.67;;;;;;;12.10;55.12;98578.66;5071603;28;20039;-81
2024/04/04 01:39:26;;;;;;;3.90;2.33;;;;;;;12.23;56.40;98643.09;5070082;28;20029;-82
2024/04/04 01:41:55;;;;;;;8.18;2.17;;;;;;;11.93;56.82;98621.56;5069902;28;20115;-80
2024/04/04 01:44:22;;;;;;;6.72;1.92;;;;;;;11.93;55.45;98629.88;5070362;28;20130;-81
2024/04/04 01:46:48;;;;;;;4.45;1.80;;;;;;;11.77;56.23;98599.56;5069835;28;20056;-81
2024/04/04 01:49:15;;;;;;;6.97;2.45;;;;;;;11.85;56.31;98620.25;5070232;28;20055;-81
2024/04/04 01:51:40;;;;;;;4.78;1.63;;;;;;;11.60;56.14;98600.91;5069949;28;20025;-81
2024/04/04 01:54:05;;;;;;;6.72;1.80;;;;;;;11.82;56.28;98630.22;5070096;28;20028;-81
2024/04/04 01:56:31;;;;;;;7.03;1.70;;;;;;;11.92;56.11;98642.19;5069677;28;20048;-81
2024/04/04 01:58:57;;;;;;;2.95;1.80;;;;;;;11.91;55.73;98645.38;5070031;28;20028;-81
2024/04/04 02:01:22;;;;;;;3.28;1.90;;;;;;;11.59;55.40;98613.19;5069766;28;20035;-81
2024/04/04 02:03:47;;;;;;;5.22;1.90;;;;;;;11.58;55.13;98633.78;5064081;28;20055;-81
2024/04/04 02:06:13;;;;;;;14.40;2.47;;;;;;;11.53;54.92;98646.19;5063897;28;20031;-81
2024/04/04 02:08:39;;;;;;;9.43;2.17;;;;;;;11.53;54.50;98634.34;5071191;28;20028;-81
2024/04/04 02:11:05;;;;;;;6.40;1.73;;;;;;;11.45;54.10;98616.44;5069117;28;20036;-82
2024/04/04 02:13:31;;;;;;;5.05;2.00;;;;;;;11.39;54.05;98628.03;5070099;28;20032;-81
2024/04/04 02:15:57;;;;;;;6.55;2.38;;;;;;;11.56;54.08;98642.53;5069798;28;20025;-81
2024/04/04 02:18:23;;;;;;;4.85;1.92;;;;;;;11.41;53.87;98622.06;5070093;28;20036;-81
2024/04/04 02:20:48;;;;;;;8.27;2.05;;;;;;;11.50;53.52;98627.72;5069858;28;20513;-81
2024/04/04 02:23:14;;;;;;;4.93;2.13;;;;;;;11.55;53.84;98621.63;5069940;28;20441;-82
2024/04/04 02:25:39;;;;;;;4.95;2.25;;;;;;;11.70;53.28;98644.06;5069490;28;20021;-82
2024/04/04 02:28:05;;;;;;;3.58;1.65;;;;;;;11.61;53.20;98622.59;5069722;28;20402;-82
2024/04/04 02:30:31;;;;;;;6.40;1.88;;;;;;;11.82;52.15;98635.75;5069755;28;20111;-81
2024/04/04 02:32:56;;;;;;;3.33;1.67;;;;;;;11.84;51.73;98638.09;5070853;28;20056;-81
2024/04/04 02:35:22;;;;;;;4.32;1.80;;;;;;;12.04;51.90;98657.97;5070652;28;20494;-81
2024/04/04 02:37:48;;;;;;;5.20;1.98;;;;;;;11.79;51.18;98622.03;5069529;28;20067;-81
2024/04/04 02:40:14;;;;;;;4.30;1.70;;;;;;;11.90;50.75;98628.00;5070352;28;20075;-82
2024/04/04 02:42:39;;;;;;;3.75;1.58;;;;;;;11.75;50.10;98596.50;5069496;28;20036;-81
2024/04/04 02:45:05;;;;;;;4.93;2.20;;;;;;;12.10;48.86;98642.34;5069062;28;20093;-80
2024/04/04 02:47:30;;;;;;;4.75;1.90;;;;;;;12.19;49.64;98647.19;5069196;28;20109;-81
2024/04/04 02:49:56;;;;;;;4.85;1.70;;;;;;;12.12;50.07;98639.09;5069163;28;20028;-81
2024/04/04 02:52:22;;;;;;;2.65;1.50;;;;;;;12.12;50.78;98662.03;5069290;28;20035;-81
2024/04/04 02:54:50;;;;;;;7.25;2.08;;;;;;;12.00;50.56;98635.16;5069130;28;20103;-81
2024/04/04 02:57:15;;;;;;;4.50;1.98;;;;;;;12.00;51.64;98646.22;5070297;28;20489;-81
2024/04/04 02:59:41;;;;;;;5.38;1.90;;;;;;;11.45;53.57;98603.38;5069293;28;20032;-81
2024/04/04 03:02:06;;;;;;;7.13;1.80;;;;;;;11.53;53.21;98637.88;5069521;28;20021;-81
2024/04/04 03:04:35;;;;;;;4.07;1.73;;;;;;;11.36;53.59;98606.03;5069354;28;20028;-82
2024/04/04 03:07:00;;;;;;;3.38;1.90;;;;;;;11.09;53.50;98567.00;5069537;28;20028;-81
2024/04/04 03:09:26;;;;;;;5.15;2.33;;;;;;;11.31;55.02;98635.03;5070288;28;20055;-80
2024/04/04 03:11:52;;;;;;;4.10;1.70;;;;;;;11.38;55.53;98658.94;5069393;28;20500;-81
2024/04/04 03:14:17;;;;;;;4.47;1.95;;;;;;;10.97;56.32;98629.38;5070301;28;20040;-82
2024/04/04 03:16:43;;;;;;;4.35;1.95;;;;;;;10.99;56.29;98633.22;5070697;28;20032;-81
2024/04/04 03:19:08;;;;;;;4.32;1.90;;;;;;;10.91;56.96;98631.13;5069198;28;20115;-81
2024/04/04 03:21:34;;;;;;;3.60;1.70;;;;;;;10.70;56.25;98606.88;5069402;28;20029;-80
2024/04/04 03:23:59;;;;;;;7.05;1.90;;;;;;;10.77;56.29;98624.03;5070455;28;20489;-83
2024/04/04 03:26:25;;;;;;;4.60;2.10;;;;;;;10.88;56.59;98634.78;5072946;28;20024;-80
2024/04/04 03:28:50;;;;;;;5.70;1.85;;;;;;;10.87;56.94;98638.75;5073889;28;20044;-80
2024/04/04 03:31:15;;;;;;;4.28;1.90;;;;;;;10.87;57.58;98641.50;5072754;28;20048;-81
2024/04/04 03:33:41;;;;;;;4.38;1.63;;;;;;;11.00;57.83;98658.88;5072649;28;20035;-80
2024/04/04 03:36:06;;;;;;;6.80;2.38;;;;;;;10.53;57.39;98595.91;5072424;28;20028;-81
2024/04/04 03:38:32;;;;;;;3.38;1.80;;;;;;;10.50;57.67;98609.81;5072242;28;20032;-80
2024/04/04 03:40:57;;;;;;;6.47;1.85;;;;;;;10.46;58.10;98626.50;5073586;28;20020;-80
2024/04/04 03:43:23;;;;;;;3.78;1.80;;;;;;;10.37;58.31;98618.06;5072346;28;20116;-80
2024/04/04 03:45:48;;;;;;;4.50;2.08;;;;;;;10.39;58.38;98645.25;5072267;28;20024;-82
2024/04/04 03:48:18;;;;;;;4.00;1.75;;;;;;;10.39;59.01;98659.84;5072158;28;20040;-80
2024/04/04 03:50:44;;;;;;;3.42;1.92;;;;;;;9.98;59.39;98623.84;5072031;28;20052;-81
2024/04/04 03:53:10;;;;;;;6.93;2.08;;;;;;;10.02;59.99;98660.41;5073162;28;20055;-81
2024/04/04 03:55:36;;;;;;;6.38;1.70;;;;;;;9.78;61.02;98649.56;5072075;28;20131;-81
2024/04/04 03:58:02;;;;;;;3.72;1.98;;;;;;;9.51;62.21;98640.78;5072045;28;20104;-82
2024/04/04 04:00:28;;;;;;;6.68;2.13;;;;;;;9.60;63.20;98668.53;5072354;28;20028;-80
2024/04/04 04:02:53;;;;;;;3.47;1.70;;;;;;;9.29;64.11;98642.47;5073079;28;20074;-81
2024/04/04 04:05:19;;;;;;;4.20;1.75;;;;;;;9.22;64.92;98631.63;5071912;28;20016;-81
2024/04/04 04:07:44;;;;;;;4.75;2.08;;;;;;;9.37;65.52;98672.22;5071661;28;20115;-82
2024/04/04 04:10:10;;;;;;;9.38;2.30;;;;;;;9.41;66.86;98674.88;5072013;28;20048;-82
2024/04/04 04:12:36;;;;;;;6.78;2.40;;;;;;;9.48;66.55;98682.22;5071988;28;20024;-81
2024/04/04 04:15:01;;;;;;;5.13;1.92;;;;;;;9.42;66.13;98684.72;5072208;28;20401;-82
2024/04/04 04:17:27;;;;;;;3.60;1.70;;;;;;;9.44;65.37;98687.81;5071847;28;20025;-81
2024/04/04 04:19:52;;;;;;;3.63;1.60;;;;;;;9.42;65.14;98679.19;5071676;28;20024;-81
2024/04/04 04:22:18;;;;;;;13.13;2.20;;;;;;;8.73;66.84;98627.97;5071304;28;20038;-81
2024/04/04 04:24:43;;;;;;;8.07;2.22;;;;;;;9.34;66.90;98713.66;5071760;28;20400;-81
2024/04/04 04:27:09;;;;;;;4.13;1.67;;;;;;;9.19;66.66;98676.56;5071474;28;20029;-82
2024/04/04 04:29:34;;;;;;;3.65;1.70;;;;;;;9.34;66.34;98684.09;5058080;28;20036;-82
2024/04/04 04:32:00;;;;;;;7.38;1.80;;;;;;;9.67;65.62;98706.97;5071824;28;20039;-81
2024/04/04 04:34:26;;;;;;;6.55;1.85;;;;;;;9.79;64.72;98672.41;5070927;28;20021;-82
2024/04/04 04:37:04;;;;;;;2.75;1.80;;;;;;;10.16;64.40;98679.34;5071260;28;20035;-81
2024/04/04 04:39:30;;;;;;;4.57;1.95;;;;;;;10.03;64.28;98664.72;5059645;28;20028;-80
2024/04/04 04:41:56;;;;;;;5.88;1.85;;;;;;;10.49;63.68;98705.72;5072508;28;20501;-81
2024/04/04 04:44:23;;;;;;;4.38;1.83;;;;;;;10.87;62.24;98691.25;5072761;28;20410;-81
2024/04/04 04:46:48;;;;;;;;;;;;;;;11.76;59.17;98697.66;5071516;28;20032;-81
2024/04/04 04:49:14;;;;;;;;;;;;;;;12.40;55.21;98695.53;5071507;28;19913;-82
2024/04/04 04:51:39;;;;;;;;;;;;;;;13.28;53.46;98694.31;5071489;28;20405;-81
2024/04/04 04:54:05;;;;;;;;;;;;;;;14.19;50.90;98700.97;5071701;28;20007;-82
2024/04/04 04:56:30;;;;;;;;;;;;;;;14.85;49.58;98700.53;5071312;28;19926;-82
2024/04/04 04:58:55;;;;;;;;;;;;;;;14.77;49.01;98702.84;5071644;28;20371;-82
2024/04/04 05:01:21;;;;;;;;;;;;;;;14.95;49.30;98707.63;5071275;28;19908;-83
2024/04/04 05:03:46;;;;;;;;;;;;;;;15.53;47.59;98714.97;5071227;28;19974;-80
2024/04/04 05:06:12;;;;;;;;;;;;;;;16.71;45.64;98722.66;5071050;28;19991;-81
2024/04/04 05:08:37;;;;;;;;;;;;;;;17.68;42.64;98713.47;5059234;28;19913;-82
2024/04/04 05:11:03;;;;;;;;;;;;;;;18.22;41.22;98720.38;5071344;28;19948;-81
2024/04/04 05:13:29;;;;;;;;;;;;;;;18.96;39.91;98721.56;5072374;28;20397;-81
2024/04/04 05:15:55;;;;;;;;;;;;;;;19.57;38.50;98721.41;5071162;28;19908;-82
2024/04/04 05:18:23;;;;;;;;;;;;;;;20.59;36.81;98722.31;5070954;28;19912;-82
2024/04/04 05:20:48;;;;;;;;;;;;;;;21.50;34.70;98725.63;5070669;28;20347;-82
2024/04/04 05:23:13;;;;;;;;;;;;;;;22.69;32.94;98717.22;5071045;28;20366;-82
2024/04/04 05:25:39;;;;;;;;;;;;;;;23.68;30.77;98713.59;5071155;28;19912;-83
2024/04/04 05:28:04;;;;;;;;;;;;;;;24.52;29.84;98719.94;5070821;28;19923;-82
2024/04/04 05:30:31;;;;;;;;;;;;;;;25.51;27.99;98724.75;5061877;28;19982;-84
2024/04/04 05:32:59;;;;;;;;;;;;;;;26.07;27.42;98724.59;5065196;28;19916;-80
2024/04/04 05:35:24;;;;;;;;;;;;;;;26.98;26.51;98730.84;5065002;28;19909;-82
2024/04/04 05:37:49;;;;;;;;;;;;;;;26.77;26.82;98727.13;5056046;28;19991;-81
2024/04/04 05:40:15;;;;;;;;;;;;;;;25.79;26.97;98727.19;5059896;28;19912;-81
2024/04/04 05:42:40;;;;;;;;;;;;;;;25.70;27.75;98722.69;5071576;28;19913;-82
2024/04/04 05:45:05;;;;;;;;;;;;;;;26.29;26.46;98718.56;5070213;28;19916;-80
2024/04/04 05:47:31;;;;;;;;;;;;;;;27.00;25.73;98711.22;5069175;28;20022;-80
2024/04/04 05:49:56;;;;;;;;;;;;;;;27.51;24.40;98703.84;5070085;28;19912;-82
2024/04/04 05:52:22;;;;;;;;;;;;;;;27.59;24.95;98708.84;5070888;28;20404;-83
2024/04/04 05:54:48;;;;;;;;;;;;;;;27.35;23.86;98718.41;5071924;28;19908;-82
2024/04/04 05:57:14;;;;;;;;;;;;;;;26.80;24.58;98718.31;5070289;28;19959;-84
2024/04/04 05:59:39;;;;;;;;;;;;;;;26.89;23.96;98722.78;5071857;28;19958;-81
2024/04/04 06:02:05;;;;;;;;;;;;;;;25.92;25.13;98724.38;5071193;28;19924;-81
2024/04/04 06:04:30;;;;;;;;;;;;;;;25.20;26.24;98720.59;5070431;28;19912;-82
2024/04/04 06:06:55;;;;;;;;;;;;;;;24.86;27.07;98717.44;5070485;28;19977;-82
2024/04/04 06:09:20;;;;;;;;;;;;;;;24.11;27.64;98730.63;5067179;28;19922;-82
2024/04/04 06:11:46;;;;;;;;;;;;;;;24.54;27.53;98722.22;5069114;28;20436;-82
2024/04/04 06:14:11;;;;;;;;;;;;;;;25.57;25.28;98725.47;5069648;28;20050;-82
2024/04/04 06:16:36;;;;;;;;;;;;;;;26.40;24.51;98717.59;5068137;28;19913;-80
2024/04/04 06:19:02;;;;;;;;;;;;;;;27.19;23.46;98717.47;5067918;28;20009;-81
2024/04/04 06:21:27;;;;;;;;;;;;;;;27.92;22.50;98722.19;5069359;28;19916;-81
2024/04/04 06:23:52;;;;;;;;;;;;;;;28.66;21.58;98728.22;5068019;28;19908;-81
2024/04/04 06:26:18;;;;;;;;;;;;;;;29.60;21.35;98729.56;5068556;28;19966;-82
2024/04/04 06:28:46;;;;;;;;;;;;;;;29.53;21.10;98739.59;5068796;28;19912;-81
2024/04/04 06:31:11;;;;;;;;;;;;;;;29.12;21.02;98740.56;5068288;28;19927;-81
2024/04/04 06:33:37;;;;;;;;;;;;;;;28.83;21.05;98739.13;5067983;28;19912;-80
2024/04/04 06:36:03;;;;;;;;;;;;;;;28.78;21.39;98743.66;5068708;28;19909;-82
2024/04/04 06:38:28;;;;;;;;;;;;;;;28.80;21.77;98735.34;5070345;28;19965;-81
2024/04/04 06:40:54;;;;;;;;;;;;;;;28.26;21.67;98727.78;5069313;28;19969;-80
2024/04/04 06:43:19;;;;;;;;;;;;;;;26.60;23.57;98745.25;5069403;28;19940;-82
2024/04/04 06:45:44;;;;;;;;;;;;;;;27.51;22.54;98737.91;5069718;28;19965;-82
2024/04/04 06:48:09;;;;;;;;;;;;;;;28.37;21.91;98741.69;5070382;28;19912;-81
2024/04/04 06:50:35;;;;;;;;;;;;;;;28.73;21.86;98733.19;5070991;28;20377;-82
2024/04/04 06:53:01;;;;;;;;;;;;;;;29.29;21.85;98748.63;5069511;28;19912;-81
2024/04/04 06:55:27;;;;;;;;;;;;;;;28.58;21.62;98735.94;5065204;28;19908;-80
2024/04/04 06:57:52;;;;;;;;;;;;;;;29.99;19.85;98740.41;5071974;28;19928;-82
2024/04/04 07:00:17;;;;;;;;;;;;;;;30.44;20.42;98739.63;5073418;28;20336;-81
2024/04/04 07:02:42;;;;;;;;;;;;;;;29.66;20.99;98730.88;5060132;28;19909;-82
2024/04/04 07:05:11;;;;;;;;;;;;;;;30.12;19.68;98742.31;5075023;28;19912;-82
2024/04/04 07:07:36;;;;;;;;;;;;;;;29.76;20.32;98734.69;5073403;28;19915;-84
2024/04/04 07:10:04;;;;;;;;;;;;;;;30.77;18.08;98731.97;5074541;28;19913;-82
2024/04/04 07:12:29;;;;;;;;;;;;;;;31.42;17.48;98738.53;5074523;28;19994;-82
2024/04/04 07:14:54;;;;;;;;;;;;;;;31.01;18.55;98734.16;5072559;28;19952;-84
2024/04/04 07:17:20;;;;;;;;;;;;;;;31.47;18.16;98731.84;5072760;28;19919;-83
2024/04/04 07:19:45;;;;;;;;;;;;;;;31.36;18.83;98732.28;5072909;28;19916;-83
2024/04/04 07:22:10;;;;;;;;;;;;;;;32.08;17.06;98722.84;5073154;28;19916;-82
2024/04/04 07:24:36;;;;;;;;;;;;;;;32.10;16.95;98737.31;5074461;28;19912;-82
2024/04/04 07:27:01;;;;;;;;;;;;;;;32.54;18.07;98734.63;5073803;28;20032;-82
2024/04/04 07:29:26;;;;;;;;;;;;;;;32.22;17.04;98718.38;5072832;28;20003;-83
2024/04/04 07:31:51;;;;;;;;;;;;;;;32.19;16.85;98722.38;5072638;28;19917;-82
2024/04/04 07:34:17;;;;;;;;;;;;;;;31.82;17.06;98724.22;5072023;28;19919;-82
2024/04/04 07:36:42;;;;;;;;;;;;;;;31.60;17.31;98725.13;5071822;28;19930;-82
2024/04/04 07:39:09;;;;;;;;;;;;;;;31.24;18.25;98722.66;5070473;28;19924;-84
2024/04/04 07:41:35;;;;;;;;;;;;;;;29.87;18.37;98716.47;5071077;28;19909;-81
2024/04/04 07:44:01;;;;;;;;;;;;;;;28.58;19.73;98713.94;5070683;28;20023;-83
2024/04/04 07:46:27;;;;;;;;;;;;;;;27.54;21.39;98716.19;5071736;28;20361;-82
2024/04/04 07:48:53;;;;;;;;;;;;;;;26.69;22.85;98715.72;5071533;28;19919;-83
2024/04/04 07:51:19;;;;;;;;;;;;;;;25.90;23.89;98710.75;5072339;28;19912;-81
2024/04/04 07:53:44;;;;;;;;;;;;;;;25.41;24.29;98704.59;5072138;28;19912;-82
2024/04/04 07:56:11;;;;;;;;;;;;;;;24.67;25.35;98708.19;5073477;28;19921;-82
2024/04/04 07:58:37;;;;;;;;;;;;;;;23.90;26.32;98704.91;5072181;28;19919;-81
2024/04/04 08:01:02;;;;;;;;;;;;;;;23.33;26.60;98694.63;5072391;28;19912;-82
2024/04/04 08:03:28;;;;;;;;;;;;;;;23.50;26.45;98692.44;5072164;28;19912;-81
2024/04/04 08:05:56;;;;;;;;;;;;;;;23.49;26.09;98691.69;5072315;28;19912;-83
2024/04/04 08:08:23;;;;;;;;;;;;;;;22.84;27.66;98683.13;5072954;28;20007;-81
2024/04/04 08:10:51;;;;;;;;;;;;;;;22.55;28.25;98684.50;5071618;28;19919;-82
2024/04/04 08:13:16;;;;;;;;;;;;;;;22.09;26.89;98699.25;5071963;28;19942;-82
2024/04/04 08:15:42;;;;;;;;;;;;;;;21.77;28.40;98695.19;5072204;28;20347;-82
2024/04/04 08:18:07;;;;;;;;;;;;;;;21.88;27.89;98695.19;5073252;28;19912;-81
2024/04/04 08:20:32;;;;;;;;;;;;;;;22.32;29.58;98691.50;5071689;28;20427;-84
2024/04/04 08:22:58;;;;;;;;;;;;;;;22.63;29.94;98681.94;5071761;28;19999;-81
2024/04/04 08:25:23;;;;;;;;;;;;;;;22.80;29.22;98677.00;5072795;28;20351;-82
2024/04/04 08:27:49;;;;;;;;;;;;;;;22.87;29.26;98681.31;5071671;28;19908;-82
2024/04/04 08:30:14;;;;;;;;;;;;;;;22.99;28.39;98672.28;5071638;28;19940;-80
2024/04/04 08:32:40;;;;;;;;;;;;;;;23.13;29.75;98670.41;5071354;28;19931;-82
2024/04/04 08:35:09;;;;;;;;;;;;;;;23.24;29.01;98666.72;5072992;28;19913;-83
2024/04/04 08:37:35;;;;;;;;;;;;;;;23.39;28.54;98676.34;5071613;28;19951;-81
2024/04/04 08:40:03;;;;;;;;;;;;;;;23.27;26.71;98674.88;5073259;28;20001;-81
2024/04/04 08:42:29;;;;;;;;;;;;;;;23.28;29.57;98659.50;5071854;28;19912;-82
2024/04/04 08:44:56;;;;;;;;;;;;;;;23.25;28.00;98660.56;5073103;28;20397;-81
2024/04/04 08:47:22;;;;;;;;;;;;;;;23.42;29.67;98649.91;5071431;28;19908;-81
2024/04/04 08:49:48;;;;;;;;;;;;;;;23.30;28.19;98645.66;5071605;28;19951;-81
2024/04/04 08:52:15;;;;;;;;;;;;;;;23.39;26.40;98642.50;5071292;28;20046;-81
2024/04/04 08:54:41;;;;;;;;;;;;;;;23.34;28.89;98634.84;5071761;28;19919;-81
2024/04/04 08:57:10;;;;;;;;;;;;;;;23.14;27.45;98638.09;5072681;28;19920;-82
2024/04/04 08:59:35;;;;;;;;;;;;;;;23.19;27.83;98634.47;5071180;28;20297;-83
2024/04/04 09:02:01;;;;;;;;;;;;;;;23.06;28.44;98634.31;5072706;28;19908;-81
2024/04/04 09:04:26;;;;;;;;;;;;;;;22.98;26.28;98627.69;5071161;28;19939;-81
2024/04/04 09:06:52;;;;;;;;;;;;;;;22.48;26.94;98628.75;5071043;28;19912;-81
2024/04/04 09:09:18;;;;;;;;;;;;;;;22.61;26.05;98620.47;5071141;28;19917;-83
2024/04/04 09:11:44;;;;;;;;;;;;;;;22.59;25.01;98620.25;5072173;28;19908;-81
2024/04/04 09:14:12;;;;;;;;;;;;;;;22.57;26.30;98613.59;5070952;28;19998;-81
2024/04/04 09:16:38;;;;;;;;;;;;;;;22.55;25.72;98608.47;5057640;28;19920;-83
2024/04/04 09:19:16;;;;;;;;;;;;;;;22.60;27.66;98613.34;5072166;28;19908;-83
2024/04/04 09:21:45;;;;;;;;;;;;;;;22.78;26.00;98611.22;5061001;28;19966;-85
2024/04/04 09:24:14;;;;;;;;;;;;;;;22.80;26.08;98608.63;5070974;28;19908;-84
2024/04/04 09:26:40;;;;;;;;;;;;;;;22.78;27.94;98606.34;5070585;28;19969;-82
2024/04/04 09:29:06;;;;;;;;;;;;;;;22.76;25.50;98608.13;5070847;28;20010;-83
2024/04/04 09:31:33;;;;;;;;;;;;;;;22.69;26.24;98607.38;5070980;28;19935;-83
2024/04/04 09:33:59;;;;;;;;;;;;;;;22.81;26.56;98599.66;5072015;28;19923;-84
2024/04/04 09:36:25;;;;;;;;;;;;;;;23.03;26.43;98595.91;5071988;28;20359;-81
2024/04/04 09:38:52;;;;;;;;;;;;;;;23.20;27.80;98605.00;5070745;28;20373;-83
2024/04/04 09:41:17;;;;;;;;;;;;;;;22.85;26.61;98593.72;5070879;28;19930;-83
2024/04/04 09:43:43;;;;;;;;;;;;;;;22.78;26.30;98588.69;5068753;28;20348;-84
2024/04/04 09:46:08;;;;;;;;;;;;;;;22.92;25.09;98588.28;5061719;28;19909;-84
2024/04/04 09:48:34;;;;;;;;;;;;;;;23.17;26.32;98575.03;5070218;28;19920;-83
2024/04/04 09:50:59;;;;;;;;;;;;;;;23.08;24.79;98581.03;5070451;28;19962;-83
2024/04/04 09:53:25;;;;;;;;;;;;;;;23.07;25.09;98577.44;5070298;28;19919;-83
2024/04/04 09:55:52;;;;;;;;;;;;;;;23.04;22.39;98577.69;5070182;28;19916;-82
2024/04/04 09:58:17;;;;;;;;;;;;;;;22.90;22.16;98578.84;5070332;28;20333;-82
2024/04/04 10:00:45;;;;;;;;;;;;;;;22.91;22.93;98569.09;5069971;28;20305;-83
2024/04/04 10:03:13;;;;;;;;;;;;;;;22.97;23.33;98567.00;5070798;28;20305;-84
2024/04/04 10:05:38;;;;;;;;;;;;;;;23.10;23.04;98565.09;5071577;28;19917;-83
2024/04/04 10:08:11;;;;;;;;;;;;;;;22.76;22.82;98565.88;5071380;28;19962;-83
2024/04/04 10:10:36;;;;;;;;;;;;;;;22.70;24.18;98569.47;5070172;28;20003;-82
2024/04/04 10:13:05;;;;;;;;;;;;;;;22.58;22.55;98565.22;5071475;28;20006;-82
2024/04/04 10:15:41;;;;;;;;;;;;;;;22.52;22.06;98552.44;5071588;28;20011;-82
2024/04/04 10:18:10;;;;;;;;;;;;;;;22.64;21.99;98557.50;5071312;28;20014;-84
2024/04/04 10:20:37;;;;;;;;;;;;;;;22.78;21.65;98549.22;5070044;28;20286;-84
2024/04/04 10:23:05;;;;;;;;;;;;;;;22.77;22.34;98553.34;5070217;28;19916;-82
2024/04/04 10:25:30;;;;;;;;;;;;;;;22.62;22.18;98542.38;5070160;28;19916;-82
2024/04/04 10:28:02;;;;;;;;;;;;;;;22.72;21.70;98538.00;5069572;28;19917;-82
2024/04/04 10:30:27;;;;;;;;;;;;;;;22.86;23.84;98541.72;5071437;28;19956;-82
2024/04/04 10:32:52;;;;;;;;;;;;;;;22.85;23.44;98552.22;5071429;28;19967;-82
2024/04/04 10:35:18;;;;;;;;;;;;;;;22.69;24.38;98548.22;5073569;28;19921;-85
2024/04/04 10:37:43;;;;;;;;;;;;;;;22.66;24.04;98549.28;5074199;28;19916;-82
2024/04/04 10:40:08;;;;;;;;;;;;;;;22.91;23.93;98547.31;5074179;28;19947;-81
2024/04/04 10:42:33;;;;;;;;;;;;;;;22.96;23.53;98551.41;5075162;28;20373;-83
2024/04/04 10:44:59;;;;;;;;;;;;;;;23.19;22.62;98546.31;5075202;28;20028;-82
2024/04/04 10:47:29;;;;;;;;;;;;;;;23.66;26.10;98541.25;5073694;28;19944;-82
2024/04/04 10:49:54;;;;;;;;;;;;;;;24.28;24.37;98542.81;5073639;28;19917;-82
2024/04/04 10:52:19;;;;;;;;;;;;;;;24.92;22.10;98537.25;5073717;28;19912;-84
2024/04/04 10:54:45;;;;;;;;;;;;;;;25.25;20.90;98544.44;5073338;28;19919;-84
2024/04/04 10:57:10;;;;;;;;;;;;;;;25.69;21.30;98547.75;5073375;28;19921;-84
2024/04/04 10:59:35;;;;;;;;;;;;;;;26.14;21.16;98533.47;5073551;28;19925;-83
2024/04/04 11:02:03;;;;;;;;;;;;;;;26.21;21.99;98532.78;5073371;28;19920;-81
2024/04/04 11:04:29;;;;;;;;;;;;;;;26.22;21.68;98537.88;5074408;28;19913;-83
2024/04/04 11:06:55;;;;;;;;;;;;;;;25.79;20.44;98532.63;5073573;28;19912;-84
2024/04/04 11:09:20;;;;;;;;;;;;;;;25.04;22.03;98535.00;5063395;28;19938;-82
2024/04/04 11:11:46;;;;;;;;;;;;;;;24.83;23.18;98543.31;5069854;28;20394;-83
2024/04/04 11:14:12;;;;;;;;;;;;;;;25.16;22.92;98541.22;5068532;28;19917;-85
2024/04/04 11:16:38;;;;;;;;;;;;;;;25.45;23.65;98545.84;5060816;28;19941;-85
2024/04/04 11:19:07;;;;;;;;;;;;;;;25.66;23.85;98538.28;5073763;28;19913;-84
2024/04/04 11:21:32;;;;;;;;;;;;;;;25.82;22.40;98542.09;5073257;28;19917;-84
2024/04/04 11:23:58;;;;;;;;;;;;;;;25.49;22.33;98541.41;5061121;28;20412;-85
2024/04/04 11:26:24;;;;;;;;;;;;;;;25.57;22.27;98544.38;5073711;28;20007;-84
2024/04/04 11:28:50;;;;;;;;;;;;;;;25.64;22.99;98545.78;5073561;28;19923;-84
2024/04/04 11:31:15;;;;;;;;;;;;;;;25.16;21.58;98541.22;5060957;28;19921;-85
2024/04/04 11:33:40;;;;;;;;;;;;;;;25.18;22.02;98541.47;5074547;28;19947;-85
2024/04/04 11:36:06;;;;;;;;;;;;;;;25.47;22.95;98534.75;5070362;28;19977;-81
2024/04/04 11:38:31;;;;;;;;;;;;;;;25.06;22.16;98540.91;5073303;28;20007;-83
2024/04/04 11:40:56;;;;;;;;;;;;;;;25.02;23.90;98527.06;5069667;28;19927;-82
2024/04/04 11:43:23;;;;;;;;;;;;;;;25.00;24.50;98529.69;5069641;28;19957;-82
2024/04/04 11:45:48;;;;;;;;;;;;;;;24.87;23.29;98532.44;5071660;28;19924;-86
2024/04/04 11:48:14;;;;;;;;;;;;;;;24.90;26.41;98533.44;5063959;28;19917;-86
2024/04/04 11:50:39;;;;;;;;;;;;;;;24.95;23.49;98532.59;5073525;28;19924;-88
2024/04/04 11:53:05;;;;;;;;;;;;;;;25.05;25.55;98528.81;5072981;28;19913;-85
2024/04/04 11:55:30;;;;;;;;;;;;;;;25.07;22.47;98529.06;5072825;28;19913;-85
2024/04/04 11:57:55;;;;;;;;;;;;;;;24.79;23.47;98527.94;5072557;28;19928;-84
2024/04/04 12:00:21;;;;;;;;;;;;;;;24.50;23.85;98526.84;5073482;28;20814;-86
2024/04/04 12:02:47;;;;;;;;;;;;;;;24.48;24.15;98532.25;5073285;28;19976;-85
2024/04/04 12:05:12;;;;;;;;;;;;;;;24.37;23.52;98523.94;5074612;28;19922;-85
2024/04/04 12:07:38;;;;;;;;;;;;;;;24.35;23.29;98520.91;5073467;28;19916;-85
2024/04/04 12:10:04;;;;;;;;;;;;;;;24.31;24.94;98518.38;5073110;28;19916;-88
2024/04/04 12:12:29;;;;;;;;;;;;;;;24.21;24.75;98528.56;5073139;28;19916;-84